sensor_id;sensor_type;location;lat;lon;timestamp;pressure;altitude;pressure_sealevel;temperature;humidity
65756;BME280;52489;47.502;18.940;2023-03-01T00:00:11;99102.94;;;2.79;68.03
65756;BME280;52489;47.502;18.940;2023-03-01T00:01:20;99097.47;;;2.87;67.71
65756;BME280;52489;47.502;18.940;2023-03-01T00:02:24;99109.19;;;2.90;67.52
65756;BME280;52489;47.502;18.940;2023-03-01T00:03:27;99107.59;;;2.89;67.20
65756;BME280;52489;47.502;18.940;2023-03-01T00:04:30;99108.38;;;2.89;67.30
65756;BME280;52489;47.502;18.940;2023-03-01T00:05:34;99107.50;;;2.95;66.89
65756;BME280;52489;47.502;18.940;2023-03-01T00:06:43;99102.47;;;3.01;66.67
65756;BME280;52489;47.502;18.940;2023-03-01T00:07:52;99099.44;;;3.04;66.25
65756;BME280;52489;47.502;18.940;2023-03-01T00:08:56;99103.91;;;2.96;66.95
65756;BME280;52489;47.502;18.940;2023-03-01T00:09:59;99106.06;;;3.00;66.76
65756;BME280;52489;47.502;18.940;2023-03-01T00:11:06;99099.97;;;2.94;67.58
65756;BME280;52489;47.502;18.940;2023-03-01T00:12:09;99106.91;;;2.82;68.62
65756;BME280;52489;47.502;18.940;2023-03-01T00:13:13;99103.88;;;2.85;68.19
65756;BME280;52489;47.502;18.940;2023-03-01T00:14:16;99099.09;;;3.00;67.25
65756;BME280;52489;47.502;18.940;2023-03-01T00:15:20;99105.84;;;3.01;67.31
65756;BME280;52489;47.502;18.940;2023-03-01T00:16:28;99108.00;;;3.04;67.29
65756;BME280;52489;47.502;18.940;2023-03-01T00:17:32;99104.63;;;3.04;66.41
65756;BME280;52489;47.502;18.940;2023-03-01T00:18:37;99100.16;;;3.11;65.74
65756;BME280;52489;47.502;18.940;2023-03-01T00:19:40;99107.91;;;3.11;65.77
65756;BME280;52489;47.502;18.940;2023-03-01T00:20:50;99109.59;;;3.05;66.13
65756;BME280;52489;47.502;18.940;2023-03-01T00:21:54;99107.09;;;3.10;65.99
65756;BME280;52489;47.502;18.940;2023-03-01T00:22:57;99112.66;;;3.14;66.16
65756;BME280;52489;47.502;18.940;2023-03-01T00:24:01;99117.59;;;3.15;66.30
65756;BME280;52489;47.502;18.940;2023-03-01T00:25:04;99113.16;;;3.23;65.87
65756;BME280;52489;47.502;18.940;2023-03-01T00:26:11;99109.19;;;3.20;65.89
65756;BME280;52489;47.502;18.940;2023-03-01T00:27:15;99110.75;;;3.21;65.71
65756;BME280;52489;47.502;18.940;2023-03-01T00:28:19;99106.03;;;3.18;65.83
65756;BME280;52489;47.502;18.940;2023-03-01T00:29:24;99106.59;;;3.20;66.47
65756;BME280;52489;47.502;18.940;2023-03-01T00:30:27;99116.03;;;3.14;66.98
65756;BME280;52489;47.502;18.940;2023-03-01T00:31:32;99106.38;;;3.22;66.84
65756;BME280;52489;47.502;18.940;2023-03-01T00:32:35;99107.81;;;3.17;66.40
65756;BME280;52489;47.502;18.940;2023-03-01T00:33:38;99117.22;;;3.00;66.72
65756;BME280;52489;47.502;18.940;2023-03-01T00:34:42;99111.81;;;3.02;66.98
65756;BME280;52489;47.502;18.940;2023-03-01T00:35:45;99113.41;;;3.03;66.52
65756;BME280;52489;47.502;18.940;2023-03-01T00:36:48;99114.44;;;3.13;65.93
65756;BME280;52489;47.502;18.940;2023-03-01T00:37:51;99118.81;;;3.13;66.09
65756;BME280;52489;47.502;18.940;2023-03-01T00:39:01;99113.59;;;3.01;66.27
65756;BME280;52489;47.502;18.940;2023-03-01T00:40:05;99115.69;;;3.11;66.16
65756;BME280;52489;47.502;18.940;2023-03-01T00:41:12;99112.47;;;2.97;67.56
65756;BME280;52489;47.502;18.940;2023-03-01T00:42:16;99108.56;;;3.06;67.45
65756;BME280;52489;47.502;18.940;2023-03-01T00:43:19;99113.97;;;3.05;67.05
65756;BME280;52489;47.502;18.940;2023-03-01T00:44:22;99117.56;;;3.04;66.80
65756;BME280;52489;47.502;18.940;2023-03-01T00:45:26;99110.06;;;3.14;66.73
65756;BME280;52489;47.502;18.940;2023-03-01T00:46:30;99108.28;;;3.14;66.45
65756;BME280;52489;47.502;18.940;2023-03-01T00:47:34;99108.87;;;2.98;67.82
65756;BME280;52489;47.502;18.940;2023-03-01T00:48:38;99107.63;;;3.01;67.73
65756;BME280;52489;47.502;18.940;2023-03-01T00:49:42;99114.19;;;3.03;66.64
65756;BME280;52489;47.502;18.940;2023-03-01T00:50:45;99110.81;;;3.03;66.99
65756;BME280;52489;47.502;18.940;2023-03-01T00:51:48;99112.53;;;3.09;66.73
65756;BME280;52489;47.502;18.940;2023-03-01T00:52:53;99118.56;;;3.03;66.77
65756;BME280;52489;47.502;18.940;2023-03-01T00:54:00;99114.38;;;3.20;66.25
65756;BME280;52489;47.502;18.940;2023-03-01T00:55:04;99108.94;;;3.22;65.72
65756;BME280;52489;47.502;18.940;2023-03-01T00:56:10;99114.22;;;3.15;65.85
65756;BME280;52489;47.502;18.940;2023-03-01T00:57:14;99108.03;;;3.16;66.54
65756;BME280;52489;47.502;18.940;2023-03-01T00:58:17;99105.62;;;3.03;66.99
65756;BME280;52489;47.502;18.940;2023-03-01T00:59:20;99117.91;;;3.07;66.84
65756;BME280;52489;47.502;18.940;2023-03-01T01:00:23;99115.06;;;2.97;66.86
65756;BME280;52489;47.502;18.940;2023-03-01T01:01:30;99115.41;;;3.01;66.92
65756;BME280;52489;47.502;18.940;2023-03-01T01:02:33;99110.56;;;3.04;66.71
65756;BME280;52489;47.502;18.940;2023-03-01T01:03:36;99112.44;;;3.15;66.47
65756;BME280;52489;47.502;18.940;2023-03-01T01:04:40;99109.69;;;3.10;66.31
65756;BME280;52489;47.502;18.940;2023-03-01T01:05:43;99113.31;;;3.09;66.60
65756;BME280;52489;47.502;18.940;2023-03-01T01:06:46;99104.13;;;2.95;68.06
65756;BME280;52489;47.502;18.940;2023-03-01T01:07:50;99110.22;;;3.01;68.36
65756;BME280;52489;47.502;18.940;2023-03-01T01:08:54;99113.75;;;3.06;68.21
65756;BME280;52489;47.502;18.940;2023-03-01T01:09:58;99108.66;;;3.00;67.97
65756;BME280;52489;47.502;18.940;2023-03-01T01:11:01;99105.88;;;2.83;68.85
65756;BME280;52489;47.502;18.940;2023-03-01T01:12:05;99103.91;;;2.96;68.34
65756;BME280;52489;47.502;18.940;2023-03-01T01:13:08;99103.78;;;2.91;69.01
65756;BME280;52489;47.502;18.940;2023-03-01T01:14:12;99109.31;;;2.95;69.13
65756;BME280;52489;47.502;18.940;2023-03-01T01:15:15;99103.03;;;3.03;69.16
65756;BME280;52489;47.502;18.940;2023-03-01T01:16:21;99103.84;;;3.03;69.01
65756;BME280;52489;47.502;18.940;2023-03-01T01:17:24;99105.84;;;3.01;70.13
65756;BME280;52489;47.502;18.940;2023-03-01T01:18:28;99097.62;;;3.04;70.36
65756;BME280;52489;47.502;18.940;2023-03-01T01:19:31;99096.16;;;2.96;70.97
65756;BME280;52489;47.502;18.940;2023-03-01T01:20:36;99089.78;;;2.81;72.22
65756;BME280;52489;47.502;18.940;2023-03-01T01:21:40;99083.62;;;2.63;73.09
65756;BME280;52489;47.502;18.940;2023-03-01T01:22:46;99083.66;;;2.75;72.48
65756;BME280;52489;47.502;18.940;2023-03-01T01:23:50;99080.63;;;2.66;73.67
65756;BME280;52489;47.502;18.940;2023-03-01T01:24:53;99076.41;;;2.65;74.72
65756;BME280;52489;47.502;18.940;2023-03-01T01:25:56;99079.72;;;2.54;75.42
65756;BME280;52489;47.502;18.940;2023-03-01T01:26:59;99077.16;;;2.54;75.01
65756;BME280;52489;47.502;18.940;2023-03-01T01:28:02;99071.53;;;2.57;74.83
65756;BME280;52489;47.502;18.940;2023-03-01T01:29:07;99061.84;;;2.71;74.64
65756;BME280;52489;47.502;18.940;2023-03-01T01:30:11;99076.03;;;2.80;74.53
65756;BME280;52489;47.502;18.940;2023-03-01T01:31:17;99068.66;;;2.65;75.34
65756;BME280;52489;47.502;18.940;2023-03-01T01:32:20;99066.41;;;2.87;73.19
65756;BME280;52489;47.502;18.940;2023-03-01T01:33:24;99076.59;;;2.52;75.23
65756;BME280;52489;47.502;18.940;2023-03-01T01:34:27;99076.06;;;2.62;74.64
65756;BME280;52489;47.502;18.940;2023-03-01T01:35:30;99077.59;;;2.51;75.63
65756;BME280;52489;47.502;18.940;2023-03-01T01:36:34;99074.34;;;2.56;75.27
65756;BME280;52489;47.502;18.940;2023-03-01T01:37:37;99068.94;;;2.76;74.38
65756;BME280;52489;47.502;18.940;2023-03-01T01:38:41;99075.94;;;2.87;73.53
65756;BME280;52489;47.502;18.940;2023-03-01T01:39:47;99075.62;;;2.65;74.63
65756;BME280;52489;47.502;18.940;2023-03-01T01:40:51;99078.75;;;2.55;74.82
65756;BME280;52489;47.502;18.940;2023-03-01T01:41:54;99074.56;;;2.54;75.27
65756;BME280;52489;47.502;18.940;2023-03-01T01:42:57;99069.09;;;2.62;74.74
65756;BME280;52489;47.502;18.940;2023-03-01T01:45:34;99070.19;;;2.55;74.76
65756;BME280;52489;47.502;18.940;2023-03-01T01:46:44;99070.25;;;2.66;74.51
65756;BME280;52489;47.502;18.940;2023-03-01T01:47:48;99062.84;;;2.70;74.48
65756;BME280;52489;47.502;18.940;2023-03-01T01:49:00;99060.00;;;2.41;76.44
65756;BME280;52489;47.502;18.940;2023-03-01T01:50:03;99060.59;;;2.25;76.90
65756;BME280;52489;47.502;18.940;2023-03-01T01:51:12;99065.31;;;2.28;76.83
65756;BME280;52489;47.502;18.940;2023-03-01T01:52:25;99061.72;;;2.29;76.69
65756;BME280;52489;47.502;18.940;2023-03-01T01:53:29;99061.34;;;2.62;75.58
65756;BME280;52489;47.502;18.940;2023-03-01T01:54:45;99062.84;;;2.70;75.55
65756;BME280;52489;47.502;18.940;2023-03-01T01:55:56;99058.59;;;2.57;75.83
65756;BME280;52489;47.502;18.940;2023-03-01T01:57:03;99050.28;;;2.55;76.21
65756;BME280;52489;47.502;18.940;2023-03-01T01:58:11;99045.84;;;2.44;77.23
65756;BME280;52489;47.502;18.940;2023-03-01T01:59:17;99051.16;;;2.49;77.57
65756;BME280;52489;47.502;18.940;2023-03-01T02:00:25;99044.53;;;2.53;77.23
65756;BME280;52489;47.502;18.940;2023-03-01T02:01:28;99036.09;;;2.46;76.50
65756;BME280;52489;47.502;18.940;2023-03-01T02:02:31;99030.91;;;2.27;77.59
65756;BME280;52489;47.502;18.940;2023-03-01T02:03:37;99033.19;;;2.36;77.65
65756;BME280;52489;47.502;18.940;2023-03-01T02:04:45;99029.91;;;2.47;76.89
65756;BME280;52489;47.502;18.940;2023-03-01T02:06:06;99027.69;;;2.32;77.59
65756;BME280;52489;47.502;18.940;2023-03-01T02:07:19;99025.78;;;2.39;77.39
65756;BME280;52489;47.502;18.940;2023-03-01T02:08:27;99035.50;;;2.44;77.31
65756;BME280;52489;47.502;18.940;2023-03-01T02:09:34;99031.63;;;2.35;77.37
65756;BME280;52489;47.502;18.940;2023-03-01T02:10:38;99033.87;;;2.31;76.15
65756;BME280;52489;47.502;18.940;2023-03-01T02:11:43;99032.63;;;2.34;76.51
65756;BME280;52489;47.502;18.940;2023-03-01T02:12:47;99033.84;;;2.49;75.75
65756;BME280;52489;47.502;18.940;2023-03-01T02:13:50;99044.12;;;2.38;75.76
65756;BME280;52489;47.502;18.940;2023-03-01T02:14:53;99035.28;;;2.27;76.35
65756;BME280;52489;47.502;18.940;2023-03-01T02:15:56;99042.19;;;2.33;76.05
65756;BME280;52489;47.502;18.940;2023-03-01T02:17:00;99033.28;;;2.29;76.58
65756;BME280;52489;47.502;18.940;2023-03-01T02:18:04;99041.16;;;2.16;77.26
65756;BME280;52489;47.502;18.940;2023-03-01T02:19:17;99038.81;;;2.14;77.77
65756;BME280;52489;47.502;18.940;2023-03-01T02:20:26;99041.53;;;2.38;76.76
65756;BME280;52489;47.502;18.940;2023-03-01T02:22:37;99040.31;;;2.40;77.25
65756;BME280;52489;47.502;18.940;2023-03-01T02:23:41;99039.84;;;2.62;76.28
65756;BME280;52489;47.502;18.940;2023-03-01T02:25:02;99036.62;;;2.48;76.87
65756;BME280;52489;47.502;18.940;2023-03-01T02:26:21;99035.06;;;2.47;76.65
65756;BME280;52489;47.502;18.940;2023-03-01T02:27:37;99036.12;;;2.39;77.43
65756;BME280;52489;47.502;18.940;2023-03-01T02:28:43;99033.06;;;2.31;76.92
65756;BME280;52489;47.502;18.940;2023-03-01T02:29:47;99028.41;;;2.21;77.26
65756;BME280;52489;47.502;18.940;2023-03-01T02:30:51;99031.19;;;2.38;76.82
65756;BME280;52489;47.502;18.940;2023-03-01T02:32:14;99027.44;;;2.52;76.52
65756;BME280;52489;47.502;18.940;2023-03-01T02:33:18;99023.69;;;2.48;76.78
65756;BME280;52489;47.502;18.940;2023-03-01T02:34:23;99014.22;;;2.42;77.04
65756;BME280;52489;47.502;18.940;2023-03-01T02:35:32;99020.78;;;2.44;77.08
65756;BME280;52489;47.502;18.940;2023-03-01T02:36:40;99022.03;;;2.54;76.68
65756;BME280;52489;47.502;18.940;2023-03-01T02:37:44;99019.50;;;2.35;77.99
65756;BME280;52489;47.502;18.940;2023-03-01T02:38:51;99023.34;;;2.44;77.69
65756;BME280;52489;47.502;18.940;2023-03-01T02:39:58;99015.97;;;2.30;78.69
65756;BME280;52489;47.502;18.940;2023-03-01T02:41:07;99027.88;;;2.49;77.49
65756;BME280;52489;47.502;18.940;2023-03-01T02:42:16;99026.66;;;2.33;78.17
65756;BME280;52489;47.502;18.940;2023-03-01T02:43:24;99025.87;;;2.33;77.75
65756;BME280;52489;47.502;18.940;2023-03-01T02:44:28;99022.34;;;2.27;77.60
65756;BME280;52489;47.502;18.940;2023-03-01T02:45:31;99015.78;;;2.31;77.18
65756;BME280;52489;47.502;18.940;2023-03-01T02:46:43;99019.41;;;2.42;76.74
65756;BME280;52489;47.502;18.940;2023-03-01T02:47:47;99016.19;;;2.46;76.89
65756;BME280;52489;47.502;18.940;2023-03-01T02:48:55;99015.50;;;2.51;76.71
65756;BME280;52489;47.502;18.940;2023-03-01T02:49:59;99015.97;;;2.30;76.79
65756;BME280;52489;47.502;18.940;2023-03-01T02:51:10;99011.47;;;2.25;77.11
65756;BME280;52489;47.502;18.940;2023-03-01T02:53:32;99012.16;;;2.32;76.73
65756;BME280;52489;47.502;18.940;2023-03-01T02:55:59;99006.16;;;2.20;77.52
65756;BME280;52489;47.502;18.940;2023-03-01T02:57:02;99002.63;;;2.14;78.45
65756;BME280;52489;47.502;18.940;2023-03-01T02:58:06;99010.00;;;2.29;78.00
65756;BME280;52489;47.502;18.940;2023-03-01T02:59:10;99000.31;;;2.24;78.32
65756;BME280;52489;47.502;18.940;2023-03-01T03:00:19;99009.44;;;2.27;77.99
65756;BME280;52489;47.502;18.940;2023-03-01T03:01:23;99006.72;;;2.22;78.03
65756;BME280;52489;47.502;18.940;2023-03-01T03:02:39;99003.47;;;2.26;77.81
65756;BME280;52489;47.502;18.940;2023-03-01T03:03:43;99015.34;;;2.34;77.30
65756;BME280;52489;47.502;18.940;2023-03-01T03:04:46;99005.69;;;2.41;76.82
65756;BME280;52489;47.502;18.940;2023-03-01T03:05:49;99007.50;;;2.22;76.96
65756;BME280;52489;47.502;18.940;2023-03-01T03:06:52;99004.06;;;2.10;77.28
65756;BME280;52489;47.502;18.940;2023-03-01T03:07:58;99006.22;;;2.13;77.31
65756;BME280;52489;47.502;18.940;2023-03-01T03:09:03;99006.28;;;2.25;76.89
65756;BME280;52489;47.502;18.940;2023-03-01T03:10:10;99011.66;;;2.23;76.52
65756;BME280;52489;47.502;18.940;2023-03-01T03:11:17;99004.19;;;2.15;77.31
65756;BME280;52489;47.502;18.940;2023-03-01T03:12:20;99003.75;;;2.18;77.61
65756;BME280;52489;47.502;18.940;2023-03-01T03:13:23;99009.78;;;2.31;77.14
65756;BME280;52489;47.502;18.940;2023-03-01T03:14:31;99010.78;;;2.30;76.81
65756;BME280;52489;47.502;18.940;2023-03-01T03:15:38;99006.66;;;2.28;76.86
65756;BME280;52489;47.502;18.940;2023-03-01T03:16:43;99004.06;;;2.28;76.90
65756;BME280;52489;47.502;18.940;2023-03-01T03:17:47;99005.91;;;2.21;77.09
65756;BME280;52489;47.502;18.940;2023-03-01T03:18:51;99001.13;;;2.25;77.01
65756;BME280;52489;47.502;18.940;2023-03-01T03:19:54;98999.81;;;2.34;76.57
65756;BME280;52489;47.502;18.940;2023-03-01T03:20:57;98996.06;;;2.30;76.97
65756;BME280;52489;47.502;18.940;2023-03-01T03:22:00;98995.63;;;2.33;76.93
65756;BME280;52489;47.502;18.940;2023-03-01T03:23:04;98991.50;;;2.14;77.97
65756;BME280;52489;47.502;18.940;2023-03-01T03:24:08;98992.50;;;2.13;78.51
65756;BME280;52489;47.502;18.940;2023-03-01T03:25:12;98993.00;;;2.21;78.22
65756;BME280;52489;47.502;18.940;2023-03-01T03:26:15;98980.91;;;2.34;77.54
65756;BME280;52489;47.502;18.940;2023-03-01T03:27:18;98985.34;;;2.45;76.96
65756;BME280;52489;47.502;18.940;2023-03-01T03:28:24;98984.03;;;2.54;76.55
65756;BME280;52489;47.502;18.940;2023-03-01T03:29:27;98979.69;;;2.36;77.52
65756;BME280;52489;47.502;18.940;2023-03-01T03:30:31;98987.59;;;2.41;76.68
65756;BME280;52489;47.502;18.940;2023-03-01T03:31:34;98977.34;;;2.35;76.94
65756;BME280;52489;47.502;18.940;2023-03-01T03:32:39;98983.28;;;2.35;76.47
65756;BME280;52489;47.502;18.940;2023-03-01T03:33:42;98985.44;;;2.38;76.26
65756;BME280;52489;47.502;18.940;2023-03-01T03:34:45;98985.84;;;2.54;75.68
65756;BME280;52489;47.502;18.940;2023-03-01T03:35:49;98984.31;;;2.34;76.51
65756;BME280;52489;47.502;18.940;2023-03-01T03:36:54;98990.13;;;2.30;77.01
65756;BME280;52489;47.502;18.940;2023-03-01T03:38:03;98976.91;;;2.38;76.27
65756;BME280;52489;47.502;18.940;2023-03-01T03:39:09;98990.91;;;2.30;76.40
65756;BME280;52489;47.502;18.940;2023-03-01T03:40:12;98992.78;;;2.23;76.56
65756;BME280;52489;47.502;18.940;2023-03-01T03:41:18;98987.53;;;2.30;76.96
65756;BME280;52489;47.502;18.940;2023-03-01T03:42:21;98988.78;;;2.57;76.12
65756;BME280;52489;47.502;18.940;2023-03-01T03:43:25;98990.06;;;2.66;74.95
65756;BME280;52489;47.502;18.940;2023-03-01T03:44:28;98986.56;;;2.42;75.36
65756;BME280;52489;47.502;18.940;2023-03-01T03:45:31;98994.91;;;2.44;75.67
65756;BME280;52489;47.502;18.940;2023-03-01T03:46:36;98995.00;;;2.38;76.74
65756;BME280;52489;47.502;18.940;2023-03-01T03:47:39;98993.72;;;2.28;77.03
65756;BME280;52489;47.502;18.940;2023-03-01T03:48:45;98997.59;;;2.19;78.13
65756;BME280;52489;47.502;18.940;2023-03-01T03:49:48;98998.97;;;2.22;77.62
65756;BME280;52489;47.502;18.940;2023-03-01T03:50:54;98996.50;;;2.27;76.43
65756;BME280;52489;47.502;18.940;2023-03-01T03:51:57;98995.44;;;2.35;76.15
65756;BME280;52489;47.502;18.940;2023-03-01T03:53:01;99001.25;;;2.30;76.30
65756;BME280;52489;47.502;18.940;2023-03-01T03:54:05;98994.00;;;2.20;77.21
65756;BME280;52489;47.502;18.940;2023-03-01T03:55:09;98995.03;;;2.19;77.31
65756;BME280;52489;47.502;18.940;2023-03-01T03:56:13;98995.22;;;2.18;77.58
65756;BME280;52489;47.502;18.940;2023-03-01T03:57:16;98997.97;;;2.23;77.61
65756;BME280;52489;47.502;18.940;2023-03-01T03:58:21;98996.88;;;2.12;76.83
65756;BME280;52489;47.502;18.940;2023-03-01T03:59:25;98998.75;;;2.05;76.86
65756;BME280;52489;47.502;18.940;2023-03-01T04:00:28;98999.31;;;2.25;75.83
65756;BME280;52489;47.502;18.940;2023-03-01T04:01:31;98997.41;;;2.51;74.86
65756;BME280;52489;47.502;18.940;2023-03-01T04:02:34;98999.59;;;2.36;75.18
65756;BME280;52489;47.502;18.940;2023-03-01T04:03:37;99008.56;;;2.33;75.42
65756;BME280;52489;47.502;18.940;2023-03-01T04:04:40;98995.78;;;2.38;76.17
65756;BME280;52489;47.502;18.940;2023-03-01T04:05:43;98993.88;;;2.45;76.20
65756;BME280;52489;47.502;18.940;2023-03-01T04:06:46;98996.28;;;2.47;76.05
65756;BME280;52489;47.502;18.940;2023-03-01T04:07:51;98992.47;;;2.49;76.23
65756;BME280;52489;47.502;18.940;2023-03-01T04:09:04;98988.37;;;2.42;76.61
65756;BME280;52489;47.502;18.940;2023-03-01T04:10:13;98991.53;;;2.44;76.22
65756;BME280;52489;47.502;18.940;2023-03-01T04:11:18;98988.13;;;2.62;75.21
65756;BME280;52489;47.502;18.940;2023-03-01T04:12:29;98988.88;;;2.50;75.93
65756;BME280;52489;47.502;18.940;2023-03-01T04:13:33;98983.78;;;2.44;76.41
65756;BME280;52489;47.502;18.940;2023-03-01T04:14:36;98987.97;;;2.57;76.45
65756;BME280;52489;47.502;18.940;2023-03-01T04:15:43;98987.34;;;2.61;76.23
65756;BME280;52489;47.502;18.940;2023-03-01T04:16:46;98986.41;;;2.56;76.39
65756;BME280;52489;47.502;18.940;2023-03-01T04:17:51;98987.72;;;2.46;77.02
65756;BME280;52489;47.502;18.940;2023-03-01T04:18:55;98989.03;;;2.37;77.27
65756;BME280;52489;47.502;18.940;2023-03-01T04:19:58;98984.31;;;2.34;77.20
65756;BME280;52489;47.502;18.940;2023-03-01T04:21:01;98985.44;;;2.38;77.23
65756;BME280;52489;47.502;18.940;2023-03-01T04:22:07;98990.75;;;2.43;76.76
65756;BME280;52489;47.502;18.940;2023-03-01T04:23:13;98985.59;;;2.43;76.81
65756;BME280;52489;47.502;18.940;2023-03-01T04:24:18;98988.22;;;2.55;76.19
65756;BME280;52489;47.502;18.940;2023-03-01T04:25:21;98993.81;;;2.52;75.89
65756;BME280;52489;47.502;18.940;2023-03-01T04:26:24;98983.78;;;2.44;75.25
65756;BME280;52489;47.502;18.940;2023-03-01T04:27:28;98986.13;;;2.45;75.12
65756;BME280;52489;47.502;18.940;2023-03-01T04:28:38;98972.50;;;2.38;75.43
65756;BME280;52489;47.502;18.940;2023-03-01T04:29:43;98982.69;;;2.52;75.36
65756;BME280;52489;47.502;18.940;2023-03-01T04:30:47;98982.31;;;2.48;75.28
65756;BME280;52489;47.502;18.940;2023-03-01T04:31:50;98987.44;;;2.36;76.02
65756;BME280;52489;47.502;18.940;2023-03-01T04:32:54;98976.56;;;2.34;75.72
65756;BME280;52489;47.502;18.940;2023-03-01T04:33:57;98978.06;;;2.23;77.08
65756;BME280;52489;47.502;18.940;2023-03-01T04:35:00;98974.94;;;2.33;76.58
65756;BME280;52489;47.502;18.940;2023-03-01T04:36:03;98983.09;;;2.37;75.65
65756;BME280;52489;47.502;18.940;2023-03-01T04:37:08;98971.94;;;2.36;76.05
65756;BME280;52489;47.502;18.940;2023-03-01T04:38:11;98980.06;;;2.40;75.94
65756;BME280;52489;47.502;18.940;2023-03-01T04:39:15;98972.75;;;2.37;74.57
65756;BME280;52489;47.502;18.940;2023-03-01T04:40:18;98982.84;;;2.38;74.40
65756;BME280;52489;47.502;18.940;2023-03-01T04:41:23;98974.94;;;2.33;74.50
65756;BME280;52489;47.502;18.940;2023-03-01T04:42:27;98979.91;;;2.35;74.49
65756;BME280;52489;47.502;18.940;2023-03-01T04:43:30;98985.19;;;2.28;75.09
65756;BME280;52489;47.502;18.940;2023-03-01T04:44:33;98976.12;;;2.37;74.45
65756;BME280;52489;47.502;18.940;2023-03-01T04:45:36;98968.03;;;2.45;74.23
65756;BME280;52489;47.502;18.940;2023-03-01T04:46:39;98982.13;;;2.49;74.27
65756;BME280;52489;47.502;18.940;2023-03-01T04:47:43;98975.53;;;2.35;74.49
65756;BME280;52489;47.502;18.940;2023-03-01T04:48:50;98973.72;;;2.36;74.26
65756;BME280;52489;47.502;18.940;2023-03-01T04:49:53;98973.44;;;2.44;73.86
65756;BME280;52489;47.502;18.940;2023-03-01T04:50:56;98979.44;;;2.56;73.82
65756;BME280;52489;47.502;18.940;2023-03-01T04:51:59;98970.56;;;2.52;73.70
65756;BME280;52489;47.502;18.940;2023-03-01T04:53:04;98981.84;;;2.39;73.94
65756;BME280;52489;47.502;18.940;2023-03-01T04:54:07;98981.53;;;2.47;74.28
65756;BME280;52489;47.502;18.940;2023-03-01T04:55:11;98979.13;;;2.64;73.68
65756;BME280;52489;47.502;18.940;2023-03-01T04:56:14;98983.03;;;2.55;73.41
65756;BME280;52489;47.502;18.940;2023-03-01T04:57:18;98973.56;;;2.49;73.74
65756;BME280;52489;47.502;18.940;2023-03-01T04:58:24;98973.28;;;2.39;73.61
65756;BME280;52489;47.502;18.940;2023-03-01T04:59:27;98986.03;;;2.22;74.42
65756;BME280;52489;47.502;18.940;2023-03-01T05:00:30;98971.06;;;2.42;74.14
65756;BME280;52489;47.502;18.940;2023-03-01T05:01:33;98980.31;;;2.50;73.94
65756;BME280;52489;47.502;18.940;2023-03-01T05:02:38;98974.75;;;2.35;74.54
65756;BME280;52489;47.502;18.940;2023-03-01T05:03:45;98969.12;;;2.38;74.00
65756;BME280;52489;47.502;18.940;2023-03-01T05:04:49;98977.25;;;2.41;74.05
65756;BME280;52489;47.502;18.940;2023-03-01T05:05:52;98971.44;;;2.46;73.61
65756;BME280;52489;47.502;18.940;2023-03-01T05:06:56;98979.72;;;2.66;72.97
65756;BME280;52489;47.502;18.940;2023-03-01T05:08:04;98968.88;;;2.58;73.20
65756;BME280;52489;47.502;18.940;2023-03-01T05:09:08;98972.31;;;2.70;73.26
65756;BME280;52489;47.502;18.940;2023-03-01T05:10:11;98966.56;;;2.68;72.93
65756;BME280;52489;47.502;18.940;2023-03-01T05:11:15;98976.06;;;2.56;73.92
65756;BME280;52489;47.502;18.940;2023-03-01T05:12:18;98976.91;;;2.38;74.90
65756;BME280;52489;47.502;18.940;2023-03-01T05:13:21;98964.69;;;2.26;75.62
65756;BME280;52489;47.502;18.940;2023-03-01T05:14:25;98975.13;;;2.20;76.06
65756;BME280;52489;47.502;18.940;2023-03-01T05:15:30;98973.81;;;2.29;76.08
65756;BME280;52489;47.502;18.940;2023-03-01T05:16:35;98979.84;;;2.41;75.76
65756;BME280;52489;47.502;18.940;2023-03-01T05:17:39;98965.63;;;2.32;76.21
65756;BME280;52489;47.502;18.940;2023-03-01T05:18:45;98978.03;;;2.42;75.54
65756;BME280;52489;47.502;18.940;2023-03-01T05:19:48;98976.72;;;2.51;75.03
65756;BME280;52489;47.502;18.940;2023-03-01T05:20:56;98972.94;;;2.65;74.11
65756;BME280;52489;47.502;18.940;2023-03-01T05:22:04;98983.97;;;2.61;73.92
65756;BME280;52489;47.502;18.940;2023-03-01T05:23:07;98975.50;;;2.54;74.17
65756;BME280;52489;47.502;18.940;2023-03-01T05:24:10;98986.19;;;2.57;74.02
65756;BME280;52489;47.502;18.940;2023-03-01T05:25:14;98984.31;;;2.64;73.56
65756;BME280;52489;47.502;18.940;2023-03-01T05:26:19;98988.72;;;2.45;74.10
65756;BME280;52489;47.502;18.940;2023-03-01T05:27:41;98991.03;;;2.35;74.52
65756;BME280;52489;47.502;18.940;2023-03-01T05:28:45;98990.75;;;2.43;74.44
65756;BME280;52489;47.502;18.940;2023-03-01T05:29:49;98988.25;;;2.37;74.57
65756;BME280;52489;47.502;18.940;2023-03-01T05:30:52;98985.09;;;2.35;74.79
65756;BME280;52489;47.502;18.940;2023-03-01T05:31:57;98991.78;;;2.24;75.36
65756;BME280;52489;47.502;18.940;2023-03-01T05:33:01;98994.84;;;2.33;75.06
65756;BME280;52489;47.502;18.940;2023-03-01T05:34:04;98995.72;;;2.26;75.21
65756;BME280;52489;47.502;18.940;2023-03-01T05:35:07;98991.97;;;2.41;74.68
65756;BME280;52489;47.502;18.940;2023-03-01T05:36:10;98994.13;;;2.44;74.36
65756;BME280;52489;47.502;18.940;2023-03-01T05:37:14;98983.88;;;2.37;75.01
65756;BME280;52489;47.502;18.940;2023-03-01T05:38:20;99000.81;;;2.33;75.02
65756;BME280;52489;47.502;18.940;2023-03-01T05:39:26;98996.81;;;2.37;75.08
65756;BME280;52489;47.502;18.940;2023-03-01T05:40:30;98993.88;;;2.45;74.54
65756;BME280;52489;47.502;18.940;2023-03-01T05:41:36;98992.66;;;2.48;74.23
65756;BME280;52489;47.502;18.940;2023-03-01T05:42:39;99001.16;;;2.55;74.08
65756;BME280;52489;47.502;18.940;2023-03-01T05:43:42;98992.59;;;2.55;73.96
65756;BME280;52489;47.502;18.940;2023-03-01T05:44:47;98994.69;;;2.46;74.15
65756;BME280;52489;47.502;18.940;2023-03-01T05:45:50;98993.69;;;2.47;74.47
65756;BME280;52489;47.502;18.940;2023-03-01T05:46:54;98996.38;;;2.40;74.71
65756;BME280;52489;47.502;18.940;2023-03-01T05:47:58;98997.59;;;2.38;75.29
65756;BME280;52489;47.502;18.940;2023-03-01T05:49:01;98999.59;;;2.36;75.68